QFA22 LFPG-LEMD
Flight info
| Callsign | QFA22 |
|---|---|
| Flight time | 1h 41m |
| Altitude | 33000 |
| Route | AGOPA DCT ARKIP DCT ARNAV DCT LMG DCT UVELI DCT OSMOB DCT ARVID DCT PPN DCT NOLSA DCT ALEPO DCT VASUM DCT BANEV |
| Aircraft | A388/J-SADE2E3FGHIJ3J4J5M1RWXY/LB1D1 |
Departure
| Time | 2026-05-04 23:37 |
|---|---|
| Airport | Charles de Gaulle International Airport (LFPG) |
Arrival
| Time | 2026-05-05 01:18 |
|---|---|
| Airport | Adolfo Suárez Madrid–Barajas Airport (LEMD) |
| Time | Latitude | Longitude | Altitude | Speed | Heading |
|---|---|---|---|---|---|
| 2026-05-04 22:59 | 49.00768 | 2.58909 | 368 ft | 0 kts | 86° |
| 2026-05-04 23:15 | 49.00768 | 2.58902 | 359 ft | 1 kts | 86° |
| 2026-05-04 23:15 | 49.00767 | 2.58891 | 367 ft | 1 kts | 86° |
| 2026-05-04 23:15 | 49.00767 | 2.58879 | 366 ft | 1 kts | 86° |
| 2026-05-04 23:15 | 49.00767 | 2.58868 | 362 ft | 1 kts | 86° |
| 2026-05-04 23:16 | 49.00766 | 2.58855 | 364 ft | 2 kts | 86° |
| 2026-05-04 23:16 | 49.00765 | 2.58836 | 367 ft | 2 kts | 83° |
| 2026-05-04 23:16 | 49.00763 | 2.58816 | 366 ft | 2 kts | 81° |
| 2026-05-04 23:16 | 49.00761 | 2.58797 | 362 ft | 2 kts | 81° |
| 2026-05-04 23:17 | 49.00757 | 2.58778 | 364 ft | 2 kts | 69° |
| 2026-05-04 23:17 | 49.00750 | 2.58761 | 368 ft | 2 kts | 56° |
| 2026-05-04 23:17 | 49.00742 | 2.58746 | 368 ft | 2 kts | 51° |
| 2026-05-04 23:17 | 49.00733 | 2.58731 | 368 ft | 2 kts | 51° |
| 2026-05-04 23:18 | 49.00725 | 2.58716 | 368 ft | 2 kts | 50° |
| 2026-05-04 23:18 | 49.00718 | 2.58708 | 368 ft | 1 kts | 28° |
| 2026-05-04 23:18 | 49.00710 | 2.58705 | 368 ft | 1 kts | 14° |
| 2026-05-04 23:18 | 49.00703 | 2.58704 | 366 ft | 1 kts | 5° |
| 2026-05-04 23:19 | 49.00697 | 2.58704 | 366 ft | 0 kts | 357° |
| 2026-05-04 23:20 | 49.00699 | 2.58704 | 366 ft | 0 kts | 357° |
| 2026-05-04 23:20 | 49.00754 | 2.58700 | 368 ft | 14 kts | 353° |
| 2026-05-04 23:20 | 49.00839 | 2.58663 | 361 ft | 11 kts | 342° |
| 2026-05-04 23:21 | 49.00916 | 2.58591 | 363 ft | 15 kts | 299° |
| 2026-05-04 23:21 | 49.00930 | 2.58413 | 364 ft | 18 kts | 263° |
| 2026-05-04 23:21 | 49.00952 | 2.58271 | 368 ft | 9 kts | 326° |
| 2026-05-04 23:21 | 49.01009 | 2.58237 | 362 ft | 8 kts | 346° |
| 2026-05-04 23:22 | 49.01110 | 2.58215 | 365 ft | 26 kts | 356° |
| 2026-05-04 23:22 | 49.01317 | 2.58191 | 361 ft | 27 kts | 354° |
| 2026-05-04 23:22 | 49.01417 | 2.58177 | 363 ft | 12 kts | 354° |
| 2026-05-04 23:22 | 49.01489 | 2.58164 | 367 ft | 10 kts | 353° |
| 2026-05-04 23:23 | 49.01576 | 2.58155 | 359 ft | 12 kts | 358° |
| 2026-05-04 23:23 | 49.01657 | 2.58147 | 365 ft | 14 kts | 355° |
| 2026-05-04 23:23 | 49.01730 | 2.58138 | 364 ft | 18 kts | 355° |
| 2026-05-04 23:23 | 49.01919 | 2.58096 | 368 ft | 23 kts | 337° |
| 2026-05-04 23:24 | 49.02029 | 2.57972 | 367 ft | 15 kts | 310° |
| 2026-05-04 23:24 | 49.02064 | 2.57893 | 366 ft | 12 kts | 295° |
| 2026-05-04 23:24 | 49.02089 | 2.57743 | 364 ft | 10 kts | 275° |
| 2026-05-04 23:24 | 49.02091 | 2.57678 | 367 ft | 9 kts | 269° |
| 2026-05-04 23:25 | 49.02088 | 2.57589 | 362 ft | 8 kts | 266° |
| 2026-05-04 23:25 | 49.02084 | 2.57507 | 361 ft | 8 kts | 265° |
| 2026-05-04 23:25 | 49.02076 | 2.57308 | 367 ft | 22 kts | 279° |
| 2026-05-04 23:25 | 49.02059 | 2.57109 | 364 ft | 17 kts | 262° |
| 2026-05-04 23:26 | 49.02048 | 2.56946 | 359 ft | 14 kts | 264° |
| 2026-05-04 23:26 | 49.02040 | 2.56810 | 365 ft | 12 kts | 264° |
| 2026-05-04 23:26 | 49.02033 | 2.56693 | 366 ft | 10 kts | 264° |
| 2026-05-04 23:26 | 49.02026 | 2.56590 | 364 ft | 9 kts | 264° |
| 2026-05-04 23:27 | 49.02021 | 2.56499 | 359 ft | 8 kts | 264° |
| 2026-05-04 23:27 | 49.02016 | 2.56416 | 365 ft | 7 kts | 262° |
| 2026-05-04 23:27 | 49.02000 | 2.56368 | 366 ft | 4 kts | 211° |
| 2026-05-04 23:27 | 49.01953 | 2.56315 | 361 ft | 17 kts | 231° |
| 2026-05-04 23:28 | 49.01925 | 2.56133 | 364 ft | 17 kts | 266° |
| 2026-05-04 23:28 | 49.01913 | 2.55971 | 359 ft | 15 kts | 263° |
| 2026-05-04 23:28 | 49.01901 | 2.55822 | 366 ft | 14 kts | 263° |
| 2026-05-04 23:28 | 49.01889 | 2.55665 | 366 ft | 18 kts | 264° |
| 2026-05-04 23:29 | 49.01873 | 2.55411 | 363 ft | 27 kts | 266° |
| 2026-05-04 23:29 | 49.01860 | 2.55141 | 366 ft | 25 kts | 266° |
| 2026-05-04 23:29 | 49.01849 | 2.54885 | 362 ft | 24 kts | 266° |
| 2026-05-04 23:29 | 49.01837 | 2.54632 | 359 ft | 24 kts | 265° |
| 2026-05-04 23:30 | 49.01823 | 2.54375 | 366 ft | 25 kts | 265° |
| 2026-05-04 23:30 | 49.01810 | 2.54110 | 364 ft | 25 kts | 265° |
| 2026-05-04 23:30 | 49.01796 | 2.53843 | 362 ft | 25 kts | 265° |
| 2026-05-04 23:30 | 49.01782 | 2.53575 | 363 ft | 26 kts | 265° |
| 2026-05-04 23:31 | 49.01765 | 2.53306 | 361 ft | 25 kts | 264° |
| 2026-05-04 23:31 | 49.01751 | 2.53044 | 363 ft | 25 kts | 265° |
| 2026-05-04 23:31 | 49.01737 | 2.52780 | 365 ft | 25 kts | 265° |
| 2026-05-04 23:31 | 49.01724 | 2.52515 | 363 ft | 25 kts | 265° |
| 2026-05-04 23:32 | 49.01711 | 2.52243 | 365 ft | 26 kts | 265° |
| 2026-05-04 23:32 | 49.01697 | 2.51974 | 364 ft | 26 kts | 265° |
| 2026-05-04 23:32 | 49.01684 | 2.51699 | 362 ft | 26 kts | 265° |
| 2026-05-04 23:32 | 49.01671 | 2.51436 | 365 ft | 12 kts | 265° |
| 2026-05-04 23:33 | 49.01667 | 2.51372 | 362 ft | 17 kts | 265° |
| 2026-05-04 23:33 | 49.01713 | 2.51280 | 366 ft | 12 kts | 347° |
| 2026-05-04 23:33 | 49.01804 | 2.51264 | 359 ft | 15 kts | 354° |
| 2026-05-04 23:33 | 49.01882 | 2.51253 | 362 ft | 0 kts | 354° |
| 2026-05-04 23:34 | 49.01885 | 2.51252 | 361 ft | 4 kts | 354° |
| 2026-05-04 23:35 | 49.01944 | 2.51254 | 361 ft | 0 kts | 15° |
| 2026-05-04 23:36 | 49.01979 | 2.51271 | 365 ft | 15 kts | 31° |
| 2026-05-04 23:36 | 49.02060 | 2.51389 | 363 ft | 17 kts | 67° |
| 2026-05-04 23:36 | 49.02082 | 2.51564 | 363 ft | 18 kts | 87° |
| 2026-05-04 23:36 | 49.02098 | 2.51993 | 360 ft | 87 kts | 85° |
| 2026-05-04 23:37 | 49.02172 | 2.53354 | 368 ft | 165 kts | 86° |
| 2026-05-04 23:37 | 49.02261 | 2.55307 | 644 ft | 190 kts | 83° |
| 2026-05-04 23:37 | 49.02366 | 2.57255 | 1369 ft | 180 kts | 85° |
| 2026-05-04 23:37 | 49.02453 | 2.59069 | 2388 ft | 163 kts | 83° |
| 2026-05-04 23:38 | 49.02575 | 2.60739 | 3245 ft | 158 kts | 81° |
| 2026-05-04 23:38 | 49.02729 | 2.62429 | 3876 ft | 166 kts | 81° |
| 2026-05-04 23:38 | 49.02886 | 2.64227 | 4470 ft | 174 kts | 82° |
| 2026-05-04 23:38 | 49.03041 | 2.66087 | 5066 ft | 179 kts | 83° |
| 2026-05-04 23:39 | 49.03161 | 2.67959 | 5670 ft | 180 kts | 85° |
| 2026-05-04 23:39 | 49.03256 | 2.69929 | 6124 ft | 190 kts | 86° |
| 2026-05-04 23:39 | 49.03337 | 2.71997 | 6502 ft | 209 kts | 86° |
| 2026-05-04 23:39 | 49.03416 | 2.74300 | 7004 ft | 226 kts | 86° |
| 2026-05-04 23:40 | 49.03534 | 2.76770 | 7731 ft | 237 kts | 85° |
| 2026-05-04 23:40 | 49.03683 | 2.79288 | 8726 ft | 236 kts | 86° |
| 2026-05-04 23:40 | 49.03807 | 2.81747 | 9809 ft | 234 kts | 86° |
| 2026-05-04 23:40 | 49.03931 | 2.84266 | 10553 ft | 245 kts | 86° |
| 2026-05-04 23:41 | 49.04075 | 2.86987 | 11016 ft | 267 kts | 86° |
| 2026-05-04 23:41 | 49.04239 | 2.89922 | 11274 ft | 294 kts | 85° |
| 2026-05-04 23:41 | 49.04346 | 2.93177 | 11486 ft | 317 kts | 95° |
| 2026-05-04 23:41 | 49.03802 | 2.96468 | 12018 ft | 328 kts | 114° |
| 2026-05-04 23:42 | 49.02513 | 2.99418 | 12170 ft | 350 kts | 134° |
| 2026-05-04 23:42 | 49.00529 | 3.01643 | 12644 ft | 360 kts | 153° |
| 2026-05-04 23:42 | 48.98192 | 3.02901 | 13765 ft | 349 kts | 169° |
| 2026-05-04 23:42 | 48.95856 | 3.03096 | 15243 ft | 324 kts | 185° |
| 2026-05-04 23:43 | 48.93659 | 3.02589 | 16271 ft | 319 kts | 191° |
| 2026-05-04 23:43 | 48.91579 | 3.01550 | 17210 ft | 312 kts | 206° |
| 2026-05-04 23:43 | 48.89732 | 2.99779 | 17825 ft | 319 kts | 217° |
| 2026-05-04 23:43 | 48.88070 | 2.97443 | 18219 ft | 331 kts | 229° |
| 2026-05-04 23:44 | 48.86899 | 2.94390 | 18381 ft | 352 kts | 249° |
| 2026-05-04 23:44 | 48.86406 | 2.90638 | 18658 ft | 366 kts | 262° |
| 2026-05-04 23:44 | 48.86145 | 2.86767 | 19205 ft | 369 kts | 262° |
| 2026-05-04 23:44 | 48.85873 | 2.82887 | 19785 ft | 371 kts | 262° |
| 2026-05-04 23:45 | 48.85557 | 2.79020 | 20330 ft | 374 kts | 261° |
| 2026-05-04 23:45 | 48.85196 | 2.75044 | 20886 ft | 376 kts | 260° |
| 2026-05-04 23:45 | 48.84822 | 2.71150 | 21435 ft | 379 kts | 260° |
| 2026-05-04 23:45 | 48.84430 | 2.67184 | 21968 ft | 381 kts | 258° |
| 2026-05-04 23:46 | 48.83759 | 2.63254 | 22495 ft | 382 kts | 248° |
| 2026-05-04 23:46 | 48.82649 | 2.59623 | 22987 ft | 385 kts | 238° |
| 2026-05-04 23:46 | 48.81141 | 2.56267 | 23510 ft | 386 kts | 232° |
| 2026-05-04 23:46 | 48.79554 | 2.52937 | 24001 ft | 387 kts | 233° |
| 2026-05-04 23:47 | 48.77994 | 2.49612 | 24501 ft | 388 kts | 233° |
| 2026-05-04 23:47 | 48.76447 | 2.46305 | 25017 ft | 390 kts | 233° |
| 2026-05-04 23:47 | 48.74862 | 2.42946 | 25528 ft | 391 kts | 231° |
| 2026-05-04 23:47 | 48.73069 | 2.39873 | 26056 ft | 391 kts | 222° |
| 2026-05-04 23:48 | 48.70986 | 2.37226 | 26592 ft | 391 kts | 214° |
| 2026-05-04 23:48 | 48.68683 | 2.35038 | 27153 ft | 391 kts | 209° |
| 2026-05-04 23:48 | 48.66318 | 2.32948 | 27701 ft | 393 kts | 210° |
| 2026-05-04 23:48 | 48.63953 | 2.30827 | 28285 ft | 395 kts | 210° |
| 2026-05-04 23:49 | 48.61582 | 2.28690 | 28856 ft | 397 kts | 210° |
| 2026-05-04 23:49 | 48.59230 | 2.26572 | 29444 ft | 399 kts | 209° |
| 2026-05-04 23:49 | 48.56839 | 2.24423 | 30016 ft | 402 kts | 209° |
| 2026-05-04 23:49 | 48.54432 | 2.22265 | 30560 ft | 403 kts | 210° |
| 2026-05-04 23:50 | 48.52016 | 2.20102 | 31125 ft | 404 kts | 210° |
| 2026-05-04 23:50 | 48.49577 | 2.17924 | 31690 ft | 405 kts | 209° |
| 2026-05-04 23:50 | 48.47131 | 2.15770 | 32229 ft | 407 kts | 209° |
| 2026-05-04 23:50 | 48.44678 | 2.13622 | 32806 ft | 407 kts | 209° |
| 2026-05-04 23:51 | 48.42245 | 2.11496 | 32921 ft | 416 kts | 209° |
| 2026-05-04 23:51 | 48.39686 | 2.09260 | 32918 ft | 429 kts | 208° |
| 2026-05-04 23:51 | 48.37082 | 2.06986 | 32915 ft | 442 kts | 208° |
| 2026-05-04 23:51 | 48.34442 | 2.04680 | 32914 ft | 442 kts | 208° |
| 2026-05-04 23:52 | 48.28823 | 2.01223 | 32909 ft | 441 kts | 193° |
| 2026-05-04 23:52 | 48.22699 | 2.00524 | 32914 ft | 442 kts | 180° |
| 2026-05-04 23:53 | 48.16538 | 2.00743 | 32909 ft | 440 kts | 180° |
| 2026-05-04 23:53 | 48.10445 | 2.00914 | 32902 ft | 440 kts | 180° |
| 2026-05-04 23:54 | 48.04321 | 2.01153 | 32902 ft | 440 kts | 179° |
| 2026-05-04 23:54 | 47.98195 | 2.01553 | 32907 ft | 439 kts | 178° |
| 2026-05-04 23:55 | 47.92106 | 2.01935 | 32907 ft | 439 kts | 179° |
| 2026-05-04 23:56 | 47.82956 | 2.02481 | 32904 ft | 439 kts | 179° |
| 2026-05-04 23:56 | 47.76824 | 2.02843 | 32893 ft | 439 kts | 178° |
| 2026-05-04 23:57 | 47.70740 | 2.03201 | 32889 ft | 439 kts | 178° |
| 2026-05-04 23:57 | 47.64669 | 2.03055 | 32884 ft | 438 kts | 187° |
| 2026-05-04 23:58 | 47.58730 | 2.01007 | 32884 ft | 440 kts | 198° |
| 2026-05-04 23:58 | 47.53040 | 1.97677 | 32887 ft | 440 kts | 200° |
| 2026-05-04 23:59 | 47.47329 | 1.94358 | 32886 ft | 440 kts | 200° |
| 2026-05-04 23:59 | 47.41642 | 1.91075 | 32886 ft | 440 kts | 200° |
| 2026-05-05 00:00 | 47.35934 | 1.87788 | 32908 ft | 440 kts | 200° |
| 2026-05-05 00:00 | 47.30254 | 1.84524 | 32897 ft | 439 kts | 200° |
| 2026-05-05 00:01 | 47.24562 | 1.81260 | 32894 ft | 438 kts | 200° |
| 2026-05-05 00:01 | 47.18877 | 1.78011 | 32892 ft | 438 kts | 199° |
| 2026-05-05 00:02 | 47.13173 | 1.74796 | 32911 ft | 437 kts | 199° |
| 2026-05-05 00:02 | 47.07511 | 1.71614 | 32919 ft | 436 kts | 199° |
| 2026-05-05 00:03 | 47.01852 | 1.68437 | 32916 ft | 436 kts | 199° |
| 2026-05-05 00:03 | 46.96200 | 1.65271 | 32913 ft | 435 kts | 199° |
| 2026-05-05 00:04 | 46.90506 | 1.62084 | 32888 ft | 436 kts | 198° |
| 2026-05-05 00:04 | 46.84862 | 1.58938 | 32894 ft | 436 kts | 198° |
| 2026-05-05 00:05 | 46.79192 | 1.55784 | 32896 ft | 437 kts | 198° |
| 2026-05-05 00:05 | 46.73509 | 1.52629 | 32897 ft | 437 kts | 198° |
| 2026-05-05 00:06 | 46.67853 | 1.49496 | 32898 ft | 437 kts | 198° |
| 2026-05-05 00:06 | 46.62167 | 1.46353 | 32901 ft | 437 kts | 198° |
| 2026-05-05 00:07 | 46.56443 | 1.43196 | 32899 ft | 438 kts | 198° |
| 2026-05-05 00:07 | 46.50750 | 1.40064 | 32884 ft | 439 kts | 198° |
| 2026-05-05 00:08 | 46.45056 | 1.36938 | 32897 ft | 439 kts | 198° |
| 2026-05-05 00:08 | 46.39353 | 1.33814 | 32913 ft | 438 kts | 198° |
| 2026-05-05 00:09 | 46.33626 | 1.30685 | 32912 ft | 444 kts | 198° |
| 2026-05-05 00:09 | 46.27808 | 1.27512 | 32916 ft | 445 kts | 198° |
| 2026-05-05 00:10 | 46.22045 | 1.24375 | 32916 ft | 445 kts | 198° |
| 2026-05-05 00:10 | 46.16272 | 1.21241 | 32914 ft | 445 kts | 198° |
| 2026-05-05 00:11 | 46.10430 | 1.18079 | 32890 ft | 450 kts | 198° |
| 2026-05-05 00:11 | 46.04578 | 1.14916 | 32911 ft | 452 kts | 198° |
| 2026-05-05 00:12 | 45.99669 | 1.12268 | 32923 ft | 453 kts | 198° |
| 2026-05-05 00:12 | 45.93754 | 1.09085 | 32920 ft | 454 kts | 199° |
| 2026-05-05 00:13 | 45.87814 | 1.05895 | 32925 ft | 454 kts | 199° |
| 2026-05-05 00:13 | 45.82054 | 1.02208 | 32926 ft | 457 kts | 207° |
| 2026-05-05 00:14 | 45.76839 | 0.96951 | 32931 ft | 462 kts | 217° |
| 2026-05-05 00:14 | 45.71898 | 0.90956 | 32948 ft | 462 kts | 217° |
| 2026-05-05 00:15 | 45.66987 | 0.85074 | 32952 ft | 462 kts | 217° |
| 2026-05-05 00:15 | 45.62080 | 0.79227 | 32954 ft | 462 kts | 217° |
| 2026-05-05 00:16 | 45.57138 | 0.73354 | 32952 ft | 462 kts | 217° |
| 2026-05-05 00:16 | 45.52170 | 0.67462 | 32951 ft | 462 kts | 217° |
| 2026-05-05 00:17 | 45.47211 | 0.61592 | 32956 ft | 462 kts | 217° |
| 2026-05-05 00:17 | 45.42266 | 0.55754 | 32960 ft | 462 kts | 217° |
| 2026-05-05 00:18 | 45.37336 | 0.49948 | 32954 ft | 462 kts | 217° |
| 2026-05-05 00:18 | 45.32397 | 0.44144 | 32965 ft | 462 kts | 217° |
| 2026-05-05 00:19 | 45.27398 | 0.38284 | 32995 ft | 462 kts | 217° |
| 2026-05-05 00:19 | 45.22442 | 0.32489 | 32967 ft | 463 kts | 217° |
| 2026-05-05 00:20 | 45.17465 | 0.26682 | 32977 ft | 462 kts | 218° |
| 2026-05-05 00:20 | 45.12524 | 0.20929 | 32980 ft | 461 kts | 218° |
| 2026-05-05 00:21 | 45.07553 | 0.15155 | 32981 ft | 461 kts | 217° |
| 2026-05-05 00:21 | 45.02592 | 0.09406 | 32976 ft | 461 kts | 217° |
| 2026-05-05 00:22 | 44.97658 | 0.03704 | 32987 ft | 459 kts | 218° |
| 2026-05-05 00:22 | 44.92702 | -0.02012 | 32998 ft | 459 kts | 218° |
| 2026-05-05 00:23 | 44.87740 | -0.07721 | 32975 ft | 459 kts | 217° |
| 2026-05-05 00:23 | 44.82812 | -0.13379 | 32976 ft | 459 kts | 217° |
| 2026-05-05 00:24 | 44.77851 | -0.19060 | 32971 ft | 458 kts | 217° |
| 2026-05-05 00:24 | 44.72901 | -0.24718 | 32970 ft | 458 kts | 217° |
| 2026-05-05 00:25 | 44.67938 | -0.30376 | 32972 ft | 458 kts | 217° |
| 2026-05-05 00:25 | 44.62750 | -0.35441 | 32977 ft | 456 kts | 208° |
| 2026-05-05 00:26 | 44.57125 | -0.39564 | 32978 ft | 455 kts | 207° |
| 2026-05-05 00:26 | 44.51531 | -0.43665 | 32975 ft | 455 kts | 207° |
| 2026-05-05 00:27 | 44.45910 | -0.47790 | 32977 ft | 455 kts | 207° |
| 2026-05-05 00:27 | 44.40292 | -0.51901 | 32997 ft | 455 kts | 207° |
| 2026-05-05 00:28 | 44.34674 | -0.56003 | 32997 ft | 455 kts | 207° |
| 2026-05-05 00:28 | 44.29062 | -0.60093 | 32983 ft | 454 kts | 207° |
| 2026-05-05 00:29 | 44.23454 | -0.64169 | 32984 ft | 454 kts | 207° |
| 2026-05-05 00:29 | 44.17880 | -0.68212 | 33001 ft | 454 kts | 207° |
| 2026-05-05 00:30 | 44.12273 | -0.72271 | 33001 ft | 454 kts | 207° |
| 2026-05-05 00:30 | 44.06668 | -0.76320 | 32996 ft | 454 kts | 207° |
| 2026-05-05 00:31 | 44.01049 | -0.80369 | 32984 ft | 455 kts | 207° |
| 2026-05-05 00:31 | 43.95421 | -0.84416 | 32985 ft | 454 kts | 207° |
| 2026-05-05 00:32 | 43.89832 | -0.88428 | 32986 ft | 455 kts | 207° |
| 2026-05-05 00:32 | 43.84212 | -0.92453 | 32989 ft | 455 kts | 207° |
| 2026-05-05 00:33 | 43.78588 | -0.96470 | 32991 ft | 454 kts | 208° |
| 2026-05-05 00:33 | 43.72965 | -1.00481 | 32993 ft | 454 kts | 208° |
| 2026-05-05 00:34 | 43.67355 | -1.04473 | 32991 ft | 454 kts | 208° |
| 2026-05-05 00:34 | 43.61731 | -1.08466 | 32986 ft | 454 kts | 208° |
| 2026-05-05 00:35 | 43.56146 | -1.12422 | 32994 ft | 454 kts | 208° |
| 2026-05-05 00:35 | 43.50527 | -1.16395 | 32998 ft | 454 kts | 208° |
| 2026-05-05 00:36 | 43.44889 | -1.20374 | 33006 ft | 454 kts | 208° |
| 2026-05-05 00:36 | 43.39264 | -1.24333 | 33010 ft | 454 kts | 208° |
| 2026-05-05 00:37 | 43.33648 | -1.28279 | 33009 ft | 454 kts | 208° |
| 2026-05-05 00:37 | 43.28029 | -1.32221 | 33013 ft | 454 kts | 208° |
| 2026-05-05 00:38 | 43.22385 | -1.36170 | 33011 ft | 454 kts | 208° |
| 2026-05-05 00:38 | 43.16780 | -1.40082 | 33028 ft | 454 kts | 209° |
| 2026-05-05 00:39 | 43.11155 | -1.44002 | 33033 ft | 454 kts | 209° |
| 2026-05-05 00:39 | 43.05514 | -1.47929 | 33035 ft | 453 kts | 209° |
| 2026-05-05 00:40 | 42.99930 | -1.51815 | 33011 ft | 453 kts | 209° |
| 2026-05-05 00:40 | 42.94289 | -1.55734 | 33010 ft | 453 kts | 210° |
| 2026-05-05 00:41 | 42.88657 | -1.59640 | 33017 ft | 454 kts | 210° |
| 2026-05-05 00:41 | 42.83015 | -1.63544 | 33022 ft | 454 kts | 209° |
| 2026-05-05 00:42 | 42.77411 | -1.67414 | 33019 ft | 454 kts | 209° |
| 2026-05-05 00:42 | 42.71769 | -1.71297 | 33021 ft | 455 kts | 209° |
| 2026-05-05 00:43 | 42.66088 | -1.75121 | 33020 ft | 455 kts | 209° |
| 2026-05-05 00:43 | 42.60405 | -1.78929 | 33016 ft | 455 kts | 209° |
| 2026-05-05 00:44 | 42.54713 | -1.82743 | 33033 ft | 454 kts | 209° |
| 2026-05-05 00:44 | 42.49049 | -1.86535 | 33024 ft | 453 kts | 209° |
| 2026-05-05 00:45 | 42.43427 | -1.90292 | 33022 ft | 453 kts | 209° |
| 2026-05-05 00:45 | 42.37758 | -1.94071 | 32996 ft | 453 kts | 210° |
| 2026-05-05 00:46 | 42.32103 | -1.97833 | 33018 ft | 452 kts | 210° |
| 2026-05-05 00:46 | 42.26465 | -2.01589 | 33016 ft | 451 kts | 210° |
| 2026-05-05 00:47 | 42.20831 | -2.05324 | 32996 ft | 451 kts | 210° |
| 2026-05-05 00:47 | 42.15192 | -2.09049 | 33022 ft | 449 kts | 210° |
| 2026-05-05 00:48 | 42.09595 | -2.12741 | 33017 ft | 449 kts | 210° |
| 2026-05-05 00:48 | 42.03984 | -2.16436 | 33018 ft | 449 kts | 210° |
| 2026-05-05 00:49 | 41.98382 | -2.20119 | 33012 ft | 448 kts | 210° |
| 2026-05-05 00:49 | 41.92788 | -2.23784 | 33028 ft | 445 kts | 211° |
| 2026-05-05 00:50 | 41.87231 | -2.27424 | 33022 ft | 445 kts | 211° |
| 2026-05-05 00:50 | 41.81689 | -2.31047 | 33010 ft | 445 kts | 211° |
| 2026-05-05 00:51 | 41.76120 | -2.34678 | 33005 ft | 445 kts | 211° |
| 2026-05-05 00:51 | 41.70552 | -2.38299 | 33022 ft | 443 kts | 211° |
| 2026-05-05 00:52 | 41.64996 | -2.41909 | 33016 ft | 443 kts | 211° |
| 2026-05-05 00:52 | 41.59452 | -2.45505 | 33005 ft | 443 kts | 211° |
| 2026-05-05 00:52 | 41.56709 | -2.47276 | 32793 ft | 431 kts | 211° |
| 2026-05-05 00:53 | 41.54048 | -2.48990 | 32540 ft | 418 kts | 211° |
| 2026-05-05 00:53 | 41.51501 | -2.50629 | 32236 ft | 407 kts | 212° |
| 2026-05-05 00:53 | 41.48970 | -2.52264 | 31990 ft | 403 kts | 212° |
| 2026-05-05 00:53 | 41.46439 | -2.53904 | 31744 ft | 403 kts | 212° |
| 2026-05-05 00:54 | 41.43915 | -2.55536 | 31212 ft | 403 kts | 212° |
| 2026-05-05 00:54 | 41.41399 | -2.57159 | 30606 ft | 400 kts | 212° |
| 2026-05-05 00:54 | 41.38907 | -2.58761 | 30008 ft | 396 kts | 212° |
| 2026-05-05 00:54 | 41.36438 | -2.60346 | 29367 ft | 390 kts | 212° |
| 2026-05-05 00:55 | 41.33911 | -2.61666 | 28724 ft | 392 kts | 204° |
| 2026-05-05 00:55 | 41.32150 | -2.62235 | 28414 ft | 393 kts | 198° |
| 2026-05-05 00:55 | 41.29413 | -2.62637 | 27798 ft | 397 kts | 191° |
| 2026-05-05 00:55 | 41.25728 | -2.62398 | 27015 ft | 398 kts | 185° |
| 2026-05-05 00:56 | 41.22982 | -2.62132 | 26403 ft | 393 kts | 185° |
| 2026-05-05 00:56 | 41.20260 | -2.61886 | 25814 ft | 389 kts | 184° |
| 2026-05-05 00:56 | 41.18472 | -2.61727 | 25418 ft | 387 kts | 184° |
| 2026-05-05 00:56 | 41.15758 | -2.61489 | 24677 ft | 387 kts | 184° |
| 2026-05-05 00:57 | 41.13084 | -2.61259 | 23843 ft | 391 kts | 183° |
| 2026-05-05 00:57 | 41.10367 | -2.61020 | 23174 ft | 388 kts | 182° |
| 2026-05-05 00:57 | 41.07700 | -2.60775 | 22786 ft | 378 kts | 182° |
| 2026-05-05 00:57 | 41.05094 | -2.60538 | 22362 ft | 375 kts | 183° |
| 2026-05-05 00:58 | 41.02492 | -2.60308 | 21747 ft | 374 kts | 182° |
| 2026-05-05 00:58 | 40.99936 | -2.60082 | 21157 ft | 370 kts | 182° |
| 2026-05-05 00:58 | 40.97376 | -2.59856 | 20561 ft | 367 kts | 182° |
| 2026-05-05 00:58 | 40.94833 | -2.59631 | 19967 ft | 364 kts | 182° |
| 2026-05-05 00:59 | 40.92317 | -2.59409 | 19374 ft | 361 kts | 182° |
| 2026-05-05 00:59 | 40.89787 | -2.59188 | 18604 ft | 365 kts | 181° |
| 2026-05-05 00:59 | 40.87256 | -2.58966 | 17865 ft | 364 kts | 181° |
| 2026-05-05 00:59 | 40.84765 | -2.58970 | 17389 ft | 351 kts | 193° |
| 2026-05-05 01:00 | 40.82482 | -2.59908 | 16987 ft | 340 kts | 210° |
| 2026-05-05 01:00 | 40.80583 | -2.61691 | 16559 ft | 331 kts | 227° |
| 2026-05-05 01:00 | 40.79027 | -2.63832 | 16393 ft | 315 kts | 227° |
| 2026-05-05 01:00 | 40.77527 | -2.65845 | 16281 ft | 301 kts | 227° |
| 2026-05-05 01:01 | 40.76078 | -2.67768 | 16167 ft | 288 kts | 227° |
| 2026-05-05 01:01 | 40.74708 | -2.69584 | 16047 ft | 277 kts | 227° |
| 2026-05-05 01:01 | 40.73359 | -2.71375 | 15959 ft | 266 kts | 227° |
| 2026-05-05 01:01 | 40.72098 | -2.73054 | 15880 ft | 256 kts | 228° |
| 2026-05-05 01:02 | 40.70860 | -2.74705 | 15594 ft | 254 kts | 228° |
| 2026-05-05 01:02 | 40.69617 | -2.76364 | 15198 ft | 255 kts | 228° |
| 2026-05-05 01:02 | 40.68373 | -2.78023 | 14887 ft | 254 kts | 228° |
| 2026-05-05 01:02 | 40.67129 | -2.79679 | 14566 ft | 254 kts | 228° |
| 2026-05-05 01:03 | 40.65879 | -2.81300 | 14236 ft | 254 kts | 224° |
| 2026-05-05 01:03 | 40.64438 | -2.82681 | 13916 ft | 256 kts | 214° |
| 2026-05-05 01:03 | 40.62897 | -2.83881 | 13550 ft | 256 kts | 214° |
| 2026-05-05 01:03 | 40.61378 | -2.85095 | 13241 ft | 254 kts | 215° |
| 2026-05-05 01:04 | 40.59925 | -2.86267 | 13135 ft | 249 kts | 215° |
| 2026-05-05 01:04 | 40.56979 | -2.88647 | 12716 ft | 248 kts | 215° |
| 2026-05-05 01:04 | 40.55477 | -2.89859 | 12374 ft | 251 kts | 214° |
| 2026-05-05 01:05 | 40.54015 | -2.91036 | 12235 ft | 249 kts | 214° |
| 2026-05-05 01:05 | 40.52532 | -2.92229 | 12045 ft | 248 kts | 214° |
| 2026-05-05 01:05 | 40.51053 | -2.93418 | 11785 ft | 248 kts | 214° |
| 2026-05-05 01:05 | 40.49583 | -2.94599 | 11483 ft | 248 kts | 214° |
| 2026-05-05 01:06 | 40.48115 | -2.95777 | 11340 ft | 246 kts | 214° |
| 2026-05-05 01:06 | 40.46649 | -2.96954 | 11142 ft | 247 kts | 214° |
| 2026-05-05 01:06 | 40.45188 | -2.98126 | 10888 ft | 247 kts | 214° |
| 2026-05-05 01:06 | 40.43732 | -2.99293 | 10631 ft | 246 kts | 213° |
| 2026-05-05 01:07 | 40.42272 | -3.00462 | 10471 ft | 245 kts | 214° |
| 2026-05-05 01:07 | 40.40814 | -3.01630 | 10261 ft | 245 kts | 213° |
| 2026-05-05 01:07 | 40.39359 | -3.02796 | 9953 ft | 247 kts | 213° |
| 2026-05-05 01:07 | 40.37896 | -3.03967 | 9789 ft | 245 kts | 213° |
| 2026-05-05 01:08 | 40.36446 | -3.05126 | 9556 ft | 245 kts | 213° |
| 2026-05-05 01:08 | 40.34994 | -3.06285 | 9376 ft | 245 kts | 213° |
| 2026-05-05 01:08 | 40.33541 | -3.07446 | 9158 ft | 245 kts | 213° |
| 2026-05-05 01:08 | 40.32083 | -3.08611 | 8931 ft | 244 kts | 213° |
| 2026-05-05 01:09 | 40.30632 | -3.09769 | 8713 ft | 243 kts | 213° |
| 2026-05-05 01:09 | 40.29192 | -3.10918 | 8476 ft | 242 kts | 213° |
| 2026-05-05 01:09 | 40.27740 | -3.12076 | 8232 ft | 244 kts | 214° |
| 2026-05-05 01:09 | 40.26532 | -3.13571 | 8032 ft | 239 kts | 240° |
| 2026-05-05 01:10 | 40.26072 | -3.15596 | 7868 ft | 235 kts | 270° |
| 2026-05-05 01:10 | 40.26339 | -3.17664 | 7796 ft | 224 kts | 281° |
| 2026-05-05 01:10 | 40.26639 | -3.19636 | 7717 ft | 215 kts | 279° |
| 2026-05-05 01:10 | 40.26887 | -3.21515 | 7651 ft | 206 kts | 278° |
| 2026-05-05 01:11 | 40.27120 | -3.23346 | 7493 ft | 203 kts | 278° |
| 2026-05-05 01:11 | 40.27355 | -3.25186 | 7277 ft | 203 kts | 278° |
| 2026-05-05 01:11 | 40.27590 | -3.27009 | 7047 ft | 203 kts | 279° |
| 2026-05-05 01:11 | 40.27825 | -3.28811 | 6815 ft | 201 kts | 279° |
| 2026-05-05 01:12 | 40.28059 | -3.30588 | 6371 ft | 194 kts | 279° |
| 2026-05-05 01:12 | 40.28314 | -3.32226 | 6249 ft | 180 kts | 288° |
| 2026-05-05 01:12 | 40.28946 | -3.33634 | 6269 ft | 180 kts | 309° |
| 2026-05-05 01:12 | 40.29791 | -3.34847 | 6270 ft | 180 kts | 310° |
| 2026-05-05 01:13 | 40.30589 | -3.36065 | 6070 ft | 176 kts | 308° |
| 2026-05-05 01:13 | 40.31400 | -3.37273 | 5616 ft | 177 kts | 313° |
| 2026-05-05 01:13 | 40.32310 | -3.38334 | 5178 ft | 173 kts | 319° |
| 2026-05-05 01:13 | 40.33237 | -3.39281 | 5010 ft | 164 kts | 321° |
| 2026-05-05 01:14 | 40.34101 | -3.40160 | 4987 ft | 151 kts | 320° |
| 2026-05-05 01:14 | 40.34963 | -3.41040 | 4987 ft | 161 kts | 320° |
| 2026-05-05 01:14 | 40.35848 | -3.41933 | 4830 ft | 164 kts | 320° |
| 2026-05-05 01:14 | 40.36743 | -3.42844 | 4608 ft | 164 kts | 320° |
| 2026-05-05 01:15 | 40.37639 | -3.43751 | 4370 ft | 161 kts | 321° |
| 2026-05-05 01:15 | 40.38521 | -3.44645 | 4165 ft | 159 kts | 321° |
| 2026-05-05 01:15 | 40.39362 | -3.45499 | 3933 ft | 144 kts | 321° |
| 2026-05-05 01:15 | 40.40142 | -3.46291 | 3757 ft | 140 kts | 321° |
| 2026-05-05 01:16 | 40.40912 | -3.47072 | 3570 ft | 139 kts | 322° |
| 2026-05-05 01:16 | 40.41660 | -3.47836 | 3398 ft | 138 kts | 322° |
| 2026-05-05 01:16 | 40.42415 | -3.48616 | 3175 ft | 140 kts | 322° |
| 2026-05-05 01:16 | 40.43206 | -3.49437 | 2972 ft | 148 kts | 322° |
| 2026-05-05 01:17 | 40.44010 | -3.50263 | 2790 ft | 147 kts | 323° |
| 2026-05-05 01:17 | 40.44827 | -3.51083 | 2572 ft | 147 kts | 323° |
| 2026-05-05 01:17 | 40.45632 | -3.51895 | 2373 ft | 146 kts | 323° |
| 2026-05-05 01:17 | 40.46430 | -3.52688 | 2247 ft | 142 kts | 321° |
| 2026-05-05 01:18 | 40.47209 | -3.53480 | 2065 ft | 143 kts | 319° |
| 2026-05-05 01:18 | 40.47981 | -3.54288 | 1981 ft | 141 kts | 322° |
| 2026-05-05 01:18 | 40.48655 | -3.54960 | 1953 ft | 98 kts | 324° |
| 2026-05-05 01:18 | 40.49015 | -3.55316 | 1958 ft | 46 kts | 322° |
| 2026-05-05 01:19 | 40.49203 | -3.55592 | 1964 ft | 35 kts | 298° |
| 2026-05-05 01:19 | 40.49236 | -3.55677 | 1966 ft | 0 kts | 293° |
| 2026-05-05 01:19 | 40.49255 | -3.55732 | 1966 ft | 20 kts | 295° |
| 2026-05-05 01:20 | 40.49302 | -3.55906 | 1965 ft | 18 kts | 287° |
| 2026-05-05 01:20 | 40.49309 | -3.56037 | 1964 ft | 12 kts | 269° |
| 2026-05-05 01:20 | 40.49306 | -3.56130 | 1964 ft | 8 kts | 267° |
| 2026-05-05 01:20 | 40.49303 | -3.56180 | 1965 ft | 3 kts | 266° |
| 2026-05-05 01:21 | 40.49303 | -3.56193 | 1965 ft | 0 kts | 271° |
| 2026-05-05 01:21 | 40.49309 | -3.56219 | 1966 ft | 4 kts | 315° |
| 2026-05-05 01:21 | 40.49355 | -3.56245 | 1967 ft | 14 kts | 353° |
| 2026-05-05 01:21 | 40.49449 | -3.56247 | 1966 ft | 15 kts | 360° |
| 2026-05-05 01:22 | 40.49538 | -3.56274 | 1967 ft | 9 kts | 306° |
| 2026-05-05 01:22 | 40.49551 | -3.56322 | 1970 ft | 3 kts | 272° |
| 2026-05-05 01:22 | 40.49551 | -3.56376 | 1972 ft | 15 kts | 271° |
| 2026-05-05 01:22 | 40.49555 | -3.56483 | 1976 ft | 9 kts | 279° |
| 2026-05-05 01:23 | 40.49561 | -3.56538 | 1978 ft | 4 kts | 275° |
| 2026-05-05 01:23 | 40.49562 | -3.56559 | 1978 ft | 1 kts | 271° |
| 2026-05-05 01:23 | 40.49562 | -3.56580 | 1978 ft | 4 kts | 271° |
| 2026-05-05 01:23 | 40.49563 | -3.56613 | 1979 ft | 4 kts | 270° |
| 2026-05-05 01:24 | 40.49563 | -3.56647 | 1981 ft | 3 kts | 270° |
| 2026-05-05 01:24 | 40.49563 | -3.56648 | 1981 ft | 0 kts | 270° |